Time;durP1;ratioP1;P1;durP2;ratioP2;P2;SDS_P1;SDS_P2;PMS_P1;PMS_P2;Temp;Humidity;BMP_temperature;BMP_pressure;BME280_temperature;BME280_humidity;BME280_pressure;Samples;Min_cycle;Max_cycle;Signal;HPM_P1;HPM_P2
2021/01/21 00:01:56;;;;;;;3.17;2.47;;;5.50;68.50;;;;;;5032430;28;20299;-65
2021/01/21 00:04:21;;;;;;;2.92;2.10;;;5.60;68.70;;;;;;5045534;28;20037;-65
2021/01/21 00:06:47;;;;;;;5.05;2.00;;;5.60;68.70;;;;;;5049538;28;20032;-65
2021/01/21 00:09:13;;;;;;;4.28;2.38;;;5.60;68.60;;;;;;5048916;28;20025;-65
2021/01/21 00:11:39;;;;;;;4.00;2.17;;;5.70;68.50;;;;;;5049070;28;20053;-65
2021/01/21 00:14:05;;;;;;;3.17;2.20;;;5.70;68.40;;;;;;5047525;28;20056;-65
2021/01/21 00:16:30;;;;;;;5.97;2.30;;;5.70;68.00;;;;;;5049386;28;20108;-65
2021/01/21 00:18:56;;;;;;;2.30;1.90;;;5.70;68.10;;;;;;5049162;28;20037;-66
2021/01/21 00:21:22;;;;;;;3.15;2.15;;;5.80;68.10;;;;;;5048470;28;20021;-65
2021/01/21 00:23:48;;;;;;;2.17;1.85;;;5.80;68.10;;;;;;5051417;28;20082;-65
2021/01/21 00:26:13;;;;;;;3.65;1.95;;;5.80;67.90;;;;;;5031633;28;20029;-65
2021/01/21 00:28:39;;;;;;;4.18;1.80;;;5.80;67.90;;;;;;5052451;28;20029;-65
2021/01/21 00:31:04;;;;;;;2.30;1.70;;;5.90;67.50;;;;;;5049887;28;20055;-65
2021/01/21 00:33:30;;;;;;;3.55;1.73;;;6.00;67.60;;;;;;5050154;28;20025;-65
2021/01/21 00:35:55;;;;;;;1.88;1.70;;;6.00;67.50;;;;;;5033562;28;20029;-65
2021/01/21 00:38:21;;;;;;;2.80;2.08;;;6.10;67.20;;;;;;5052193;28;20040;-66
2021/01/21 00:40:46;;;;;;;2.35;1.90;;;6.10;66.90;;;;;;5052548;28;20036;-65
2021/01/21 00:43:12;;;;;;;2.20;2.00;;;6.10;66.70;;;;;;5052195;28;20116;-65
2021/01/21 00:45:38;;;;;;;2.67;2.05;;;6.10;66.90;;;;;;5050839;28;20024;-65
2021/01/21 00:48:03;;;;;;;2.95;2.20;;;6.20;66.80;;;;;;5052454;28;20104;-65
2021/01/21 00:50:29;;;;;;;3.20;2.60;;;6.20;66.70;;;;;;5052603;28;20040;-65
2021/01/21 00:52:54;;;;;;;3.88;2.85;;;6.20;66.70;;;;;;5052072;28;20044;-66
2021/01/21 00:55:20;;;;;;;5.53;3.20;;;6.10;66.60;;;;;;5051061;28;20025;-66
2021/01/21 00:57:45;;;;;;;4.25;2.92;;;5.90;66.60;;;;;;5051566;28;20385;-65
2021/01/21 01:00:12;;;;;;;5.95;3.00;;;5.80;66.90;;;;;;5042726;28;20580;-65
2021/01/21 01:02:38;;;;;;;5.15;2.97;;;5.70;67.10;;;;;;5039024;28;20720;-65
2021/01/21 01:05:05;;;;;;;8.25;3.20;;;5.50;67.30;;;;;;5051030;28;20028;-65
2021/01/21 01:07:32;;;;;;;3.70;2.85;;;5.40;67.60;;;;;;5051789;28;20146;-65
2021/01/21 01:09:57;;;;;;;4.20;2.88;;;5.30;67.90;;;;;;5051554;28;20075;-65
2021/01/21 01:12:23;;;;;;;5.18;2.55;;;5.30;68.20;;;;;;5051405;28;20061;-65
2021/01/21 01:14:49;;;;;;;2.67;2.10;;;5.30;68.40;;;;;;5050137;28;20489;-66
2021/01/21 01:17:15;;;;;;;4.13;2.40;;;5.20;68.40;;;;;;5050527;28;20409;-65
2021/01/21 01:19:40;;;;;;;3.03;1.90;;;5.20;68.60;;;;;;5051724;28;20047;-65
2021/01/21 01:22:06;;;;;;;2.90;1.90;;;5.20;68.70;;;;;;5051151;28;20079;-65
2021/01/21 01:24:31;;;;;;;2.55;1.70;;;5.30;68.80;;;;;;5049958;28;20033;-65
2021/01/21 01:26:57;;;;;;;5.85;1.35;;;5.40;68.70;;;;;;5050263;28;20108;-65
2021/01/21 01:29:23;;;;;;;3.08;1.27;;;5.50;68.60;;;;;;5050391;28;20036;-65
2021/01/21 01:31:48;;;;;;;1.80;1.45;;;5.60;68.60;;;;;;5050714;28;20033;-65
2021/01/21 01:34:14;;;;;;;1.25;1.15;;;5.70;68.50;;;;;;5049215;28;20029;-65
2021/01/21 01:36:39;;;;;;;1.60;1.42;;;5.80;68.20;;;;;;5051152;28;20017;-65
2021/01/21 01:39:05;;;;;;;1.15;1.02;;;5.90;68.00;;;;;;5050995;28;20091;-65
2021/01/21 01:41:31;;;;;;;1.10;1.00;;;6.00;67.80;;;;;;5047499;28;20037;-65
2021/01/21 01:43:56;;;;;;;1.42;1.20;;;6.10;67.60;;;;;;5049994;28;20417;-65
2021/01/21 01:46:26;;;;;;;3.38;1.10;;;6.30;67.30;;;;;;5050697;28;20033;-65
2021/01/21 01:48:56;;;;;;;2.35;1.10;;;6.40;67.10;;;;;;5051005;28;20508;-65
2021/01/21 01:51:22;;;;;;;1.15;1.02;;;6.50;66.90;;;;;;5050583;28;20024;-65
2021/01/21 01:53:47;;;;;;;1.58;0.80;;;6.60;66.60;;;;;;5050640;28;20455;-66
2021/01/21 01:56:13;;;;;;;2.30;1.20;;;6.70;66.50;;;;;;5050076;28;20021;-65
2021/01/21 01:58:38;;;;;;;1.58;1.15;;;6.80;66.10;;;;;;5048215;28;20025;-65
2021/01/21 02:01:05;;;;;;;2.85;1.30;;;6.90;65.80;;;;;;5039040;28;20053;-65
2021/01/21 02:03:30;;;;;;;2.90;1.42;;;6.90;65.70;;;;;;5049922;28;20021;-65
2021/01/21 02:05:56;;;;;;;5.32;1.38;;;6.90;65.60;;;;;;5049316;28;20028;-65
2021/01/21 02:08:24;;;;;;;1.88;1.33;;;6.90;65.50;;;;;;5050526;28;20028;-65
2021/01/21 02:10:50;;;;;;;1.25;1.15;;;6.90;65.30;;;;;;5050066;28;20120;-65
2021/01/21 02:13:39;;;;;;;2.10;1.42;;;6.90;65.30;;;;;;5050712;28;20025;-66
2021/01/21 02:16:17;;;;;;;1.20;1.10;;;6.90;65.10;;;;;;5048853;28;20021;-65
2021/01/21 02:18:48;;;;;;;1.45;1.05;;;6.90;65.10;;;;;;5044825;28;20021;-66
2021/01/21 02:21:29;;;;;;;2.60;1.25;;;6.90;65.20;;;;;;5045188;28;20056;-65
2021/01/21 02:24:16;;;;;;;2.72;1.40;;;7.00;65.10;;;;;;5049399;28;20052;-65
2021/01/21 02:26:54;;;;;;;1.83;1.30;;;7.00;65.20;;;;;;5046991;28;20436;-65
2021/01/21 02:29:37;;;;;;;3.17;1.50;;;7.00;65.10;;;;;;5045983;28;20409;-65
2021/01/21 02:32:05;;;;;;;;;;;7.00;65.10;;;;;;5048892;28;20033;-66
2021/01/21 02:34:54;;;;;;;1.20;1.10;;;7.00;65.50;;;;;;5048374;28;19921;-65
2021/01/21 02:37:25;;;;;;;2.55;1.27;;;7.10;65.00;;;;;;5042925;28;20474;-65
2021/01/21 02:39:54;;;;;;;1.70;1.05;;;7.10;65.00;;;;;;5049846;28;20104;-65
2021/01/21 02:42:20;;;;;;;1.33;1.13;;;7.10;65.00;;;;;;5049750;28;20481;-65
2021/01/21 02:44:47;;;;;;;1.33;1.20;;;7.10;64.90;;;;;;5048723;28;20095;-65
2021/01/21 02:47:13;;;;;;;3.20;1.00;;;7.20;64.80;;;;;;5049515;28;20025;-65
2021/01/21 02:49:39;;;;;;;1.65;1.15;;;7.20;64.60;;;;;;5049566;28;20087;-65
2021/01/21 02:52:35;;;;;;;1.45;1.00;;;7.20;64.40;;;;;;5046118;28;20020;-65
2021/01/21 02:55:24;;;;;;;1.77;1.00;;;7.30;64.40;;;;;;5048460;28;20048;-65
2021/01/21 02:58:07;;;;;;;1.70;0.88;;;7.30;64.50;;;;;;5049779;28;20076;-65
2021/01/21 03:00:35;;;;;;;0.80;0.80;;;7.30;64.40;;;;;;5044697;28;20033;-65
2021/01/21 03:03:03;;;;;;;1.88;0.68;;;7.30;64.70;;;;;;5047769;28;20135;-65
2021/01/21 03:05:29;;;;;;;0.50;0.50;;;7.50;63.90;;;;;;5030887;28;20056;-66
2021/01/21 03:07:56;;;;;;;1.00;0.70;;;7.50;63.80;;;;;;5035738;28;20065;-65
2021/01/21 03:10:22;;;;;;;0.60;0.60;;;7.70;63.80;;;;;;5049387;28;20106;-65
2021/01/21 03:12:58;;;;;;;0.93;0.70;;;7.80;62.70;;;;;;5049463;28;20110;-65
2021/01/21 03:15:24;;;;;;;0.80;0.80;;;7.90;62.30;;;;;;5047988;28;20377;-65
2021/01/21 03:17:50;;;;;;;1.70;0.80;;;8.00;62.10;;;;;;5049119;28;20025;-65
2021/01/21 03:20:16;;;;;;;0.60;0.60;;;8.10;61.50;;;;;;5049982;28;20553;-65
2021/01/21 03:22:42;;;;;;;0.73;0.73;;;8.20;61.20;;;;;;5047978;28;20048;-65
2021/01/21 03:25:09;;;;;;;1.17;0.82;;;8.20;60.90;;;;;;5033138;28;20038;-65
2021/01/21 03:27:34;;;;;;;1.27;0.60;;;8.30;61.00;;;;;;5038848;28;20087;-66
2021/01/21 03:30:00;;;;;;;1.58;0.50;;;8.40;61.00;;;;;;5037274;28;20029;-65
2021/01/21 03:32:25;;;;;;;0.60;0.60;;;8.40;60.90;;;;;;5048937;28;20129;-65
2021/01/21 03:34:51;;;;;;;0.52;0.50;;;8.40;60.80;;;;;;5047734;28;20040;-65
2021/01/21 03:37:17;;;;;;;1.00;0.88;;;8.40;60.70;;;;;;5049865;28;20386;-65
2021/01/21 03:39:42;;;;;;;0.70;0.70;;;8.40;60.50;;;;;;5048995;28;20032;-65
2021/01/21 03:42:08;;;;;;;0.70;0.60;;;8.50;59.90;;;;;;5048840;28;20025;-65
2021/01/21 03:44:33;;;;;;;0.70;0.70;;;8.50;59.70;;;;;;5047708;28;20036;-65
2021/01/21 03:46:59;;;;;;;1.02;0.80;;;8.50;59.80;;;;;;5048773;28;20025;-65
2021/01/21 03:49:24;;;;;;;0.63;0.63;;;8.50;60.00;;;;;;5049758;28;20051;-65
2021/01/21 03:51:50;;;;;;;0.70;0.60;;;8.50;60.10;;;;;;5048827;28;20389;-65
2021/01/21 03:54:15;;;;;;;0.77;0.70;;;8.50;59.70;;;;;;5047946;28;20029;-65
2021/01/21 03:56:41;;;;;;;0.63;0.60;;;8.50;59.70;;;;;;5049702;28;20036;-65
2021/01/21 03:59:07;;;;;;;1.20;0.75;;;8.50;59.80;;;;;;5052934;22;20045;-67
2021/01/21 04:01:32;;;;;;;0.95;0.73;;;8.50;59.30;;;;;;5053483;28;20031;-67
2021/01/21 04:03:58;;;;;;;0.93;0.80;;;8.50;59.50;;;;;;5033733;28;20026;-68
2021/01/21 04:06:23;;;;;;;0.82;0.70;;;8.60;59.40;;;;;;5034890;28;20034;-67
2021/01/21 04:08:49;;;;;;;2.05;0.50;;;8.60;59.30;;;;;;5015064;28;20064;-68
2021/01/21 04:11:14;;;;;;;0.60;0.60;;;8.60;59.30;;;;;;5017077;28;20029;-67
2021/01/21 04:13:40;;;;;;;0.80;0.80;;;8.60;59.20;;;;;;5033873;28;20235;-67
2021/01/21 04:16:06;;;;;;;0.55;0.55;;;8.60;59.10;;;;;;5033047;28;20052;-67
2021/01/21 04:18:32;;;;;;;0.90;0.60;;;8.60;59.10;;;;;;5016267;28;20021;-66
2021/01/21 04:20:57;;;;;;;1.30;0.68;;;8.70;59.10;;;;;;5034021;28;20479;-68
2021/01/21 04:23:23;;;;;;;0.80;0.60;;;8.70;59.30;;;;;;5033791;28;20060;-68
2021/01/21 04:25:49;;;;;;;0.75;0.75;;;8.60;59.50;;;;;;5033627;28;20021;-68
2021/01/21 04:28:14;;;;;;;2.00;0.70;;;8.60;59.40;;;;;;5033158;28;20022;-66
2021/01/21 04:30:40;;;;;;;1.25;0.70;;;8.60;59.60;;;;;;5012391;28;20535;-67
2021/01/21 04:33:05;;;;;;;0.98;0.80;;;8.60;59.80;;;;;;5036343;28;20030;-68
2021/01/21 04:35:31;;;;;;;1.13;0.47;;;8.60;59.70;;;;;;5033640;28;20056;-68
2021/01/21 04:37:58;;;;;;;1.10;0.70;;;8.60;59.70;;;;;;5033639;28;20017;-66
2021/01/21 04:40:25;;;;;;;0.82;0.70;;;8.60;59.80;;;;;;5015822;28;20025;-67
2021/01/21 04:42:51;;;;;;;0.85;0.73;;;8.60;59.80;;;;;;5032990;28;20350;-68
2021/01/21 04:45:17;;;;;;;2.33;0.52;;;8.60;59.80;;;;;;5032961;28;20041;-66
2021/01/21 04:47:42;;;;;;;0.82;0.70;;;8.60;59.70;;;;;;5032088;28;20087;-66
2021/01/21 04:50:09;;;;;;;0.82;0.80;;;8.60;59.50;;;;;;5013793;28;20025;-66
2021/01/21 04:52:38;;;;;;;2.22;0.70;;;8.70;59.60;;;;;;5014150;28;20029;-66
2021/01/21 04:55:18;;;;;;;0.57;0.57;;;8.60;59.50;;;;;;5032393;28;20029;-66
2021/01/21 04:58:10;;;;;;;0.70;0.70;;;8.70;59.60;;;;;;5023573;28;20030;-67
2021/01/21 05:00:37;;;;;;;0.93;0.52;;;8.70;59.70;;;;;;5021417;28;20033;-66
2021/01/21 05:03:03;;;;;;;1.27;0.60;;;8.70;59.90;;;;;;5036821;28;20025;-67
2021/01/21 05:05:29;;;;;;;1.88;0.60;;;8.70;59.90;;;;;;5013948;28;20108;-66
2021/01/21 05:07:55;;;;;;;0.80;0.57;;;8.60;60.00;;;;;;5031726;28;20113;-66
2021/01/21 05:10:21;;;;;;;1.63;0.70;;;8.60;60.10;;;;;;5035939;28;20080;-66
2021/01/21 05:12:47;;;;;;;0.60;0.60;;;8.60;60.10;;;;;;5042762;28;20034;-67
2021/01/21 05:15:13;;;;;;;0.52;0.52;;;8.50;60.10;;;;;;5021217;28;20087;-66
2021/01/21 05:17:38;;;;;;;0.68;0.68;;;8.60;60.10;;;;;;5023113;28;20029;-66
2021/01/21 05:20:05;;;;;;;2.35;0.60;;;8.50;60.10;;;;;;5037594;28;20059;-66
2021/01/21 05:22:30;;;;;;;0.50;0.50;;;8.50;60.10;;;;;;5030016;28;20053;-66
2021/01/21 05:24:56;;;;;;;1.63;0.65;;;8.50;60.20;;;;;;5032752;28;20048;-67
2021/01/21 05:27:22;;;;;;;0.50;0.50;;;8.50;60.40;;;;;;5033746;28;20532;-69
2021/01/21 05:29:49;;;;;;;1.48;0.80;;;8.50;60.30;;;;;;5034874;28;20036;-69
2021/01/21 05:32:16;;;;;;;1.13;0.68;;;8.50;60.40;;;;;;5044309;28;20028;-67
2021/01/21 05:34:46;;;;;;;0.63;0.60;;;8.50;60.40;;;;;;5015726;28;20030;-67
2021/01/21 05:37:13;;;;;;;1.75;0.60;;;8.40;60.10;;;;;;5034241;28;20029;-67
2021/01/21 05:39:42;;;;;;;3.50;2.50;;;8.40;60.40;;;;;;5032823;28;20025;-67
2021/01/21 05:42:08;;;;;;;1.08;0.80;;;8.40;60.40;;;;;;5015406;28;20025;-67
2021/01/21 05:44:35;;;;;;;0.70;0.70;;;8.40;60.40;;;;;;5036391;28;20116;-67
2021/01/21 05:47:02;;;;;;;1.15;0.70;;;8.40;60.40;;;;;;5019377;28;20197;-67
2021/01/21 05:49:28;;;;;;;0.73;0.70;;;8.40;60.60;;;;;;5028260;28;20072;-67
2021/01/21 05:51:58;;;;;;;2.00;0.70;;;8.40;60.50;;;;;;5017319;28;20045;-68
2021/01/21 05:54:25;;;;;;;4.93;0.90;;;8.50;60.30;;;;;;5039141;28;20481;-66
2021/01/21 05:56:52;;;;;;;2.45;0.80;;;8.40;60.60;;;;;;5033058;28;20029;-66
2021/01/21 05:59:19;;;;;;;2.45;1.30;;;8.40;60.20;;;;;;5037597;28;20080;-66
2021/01/21 06:01:45;;;;;;;2.13;1.30;;;8.50;60.20;;;;;;5022487;28;20052;-65
2021/01/21 06:04:12;;;;;;;1.95;1.25;;;8.50;60.30;;;;;;5034677;28;20021;-65
2021/01/21 06:06:42;;;;;;;5.43;3.08;;;8.50;60.40;;;;;;5035366;28;20032;-66
2021/01/21 06:09:12;;;;;;;4.20;2.70;;;8.60;60.20;;;;;;5033516;28;20021;-65
2021/01/21 06:11:40;;;;;;;3.97;2.30;;;8.60;60.00;;;;;;5035861;28;20014;-67
2021/01/21 06:14:06;;;;;;;3.40;2.10;;;8.60;59.80;;;;;;5019480;28;20033;-67
2021/01/21 06:16:33;;;;;;;3.08;2.33;;;8.60;60.00;;;;;;5036151;28;20029;-67
2021/01/21 06:18:59;;;;;;;3.60;2.55;;;8.60;59.70;;;;;;5036826;28;20036;-68
2021/01/21 06:21:26;;;;;;;4.35;2.65;;;8.60;59.30;;;;;;5034123;28;20029;-65
2021/01/21 06:24:01;;;;;;;2.70;1.90;;;8.60;59.30;;;;;;5039272;28;20100;-68
2021/01/21 06:26:31;;;;;;;2.92;1.80;;;8.70;59.30;;;;;;5033706;28;20030;-67
2021/01/21 06:29:00;;;;;;;2.10;1.52;;;8.70;58.90;;;;;;5019257;28;20033;-67
2021/01/21 06:31:29;;;;;;;2.03;1.50;;;8.70;59.10;;;;;;5043952;28;20571;-66
2021/01/21 06:33:57;;;;;;;1.25;1.00;;;8.70;59.20;;;;;;5037842;28;20475;-68
2021/01/21 06:36:26;;;;;;;1.40;1.27;;;8.80;58.50;;;;;;5039556;28;20025;-67
2021/01/21 06:38:55;;;;;;;2.33;1.02;;;8.80;59.10;;;;;;5037730;28;20025;-68
2021/01/21 06:41:24;;;;;;;1.17;1.08;;;8.80;58.70;;;;;;5037084;28;20485;-66
2021/01/21 06:43:50;;;;;;;3.50;1.50;;;8.80;58.90;;;;;;5038602;28;20017;-66
2021/01/21 06:46:16;;;;;;;1.88;0.82;;;8.80;59.00;;;;;;5034671;28;20117;-68
2021/01/21 06:48:46;;;;;;;1.23;0.88;;;8.90;58.60;;;;;;5016748;28;20029;-69
2021/01/21 06:51:12;;;;;;;1.08;0.80;;;8.90;58.20;;;;;;5016501;28;20057;-67
2021/01/21 06:53:46;;;;;;;1.10;0.70;;;9.00;58.30;;;;;;5031474;28;20037;-67
2021/01/21 06:56:12;;;;;;;0.80;0.80;;;9.00;58.10;;;;;;5011901;28;20057;-66
2021/01/21 06:58:54;;;;;;;2.70;0.93;;;9.10;57.70;;;;;;5030216;28;20037;-66
2021/01/21 07:01:32;;;;;;;1.10;0.90;;;9.20;57.70;;;;;;5045579;28;20049;-67
2021/01/21 07:04:04;;;;;;;0.73;0.73;;;9.20;57.40;;;;;;5017404;28;20502;-67
2021/01/21 07:06:56;;;;;;;4.77;1.00;;;9.20;57.20;;;;;;5013516;28;20043;-67
2021/01/21 07:09:25;;;;;;;1.00;0.60;;;9.30;57.20;;;;;;5031537;28;20120;-67
2021/01/21 07:11:57;;;;;;;1.30;0.73;;;9.30;57.10;;;;;;5028296;28;20029;-67
2021/01/21 07:14:27;;;;;;;0.70;0.70;;;9.30;56.00;;;;;;5030705;28;20037;-67
2021/01/21 07:16:58;;;;;;;2.35;0.70;;;9.40;56.60;;;;;;5030515;28;20060;-66
2021/01/21 07:19:43;;;;;;;2.22;0.63;;;9.40;56.30;;;;;;5013764;28;20117;-67
2021/01/21 07:22:24;;;;;;;1.02;0.63;;;9.50;56.20;;;;;;5031786;28;20113;-67
2021/01/21 07:24:57;;;;;;;1.35;0.85;;;9.50;55.70;;;;;;5030333;28;20132;-67
2021/01/21 07:27:26;;;;;;;0.85;0.65;;;9.60;55.70;;;;;;5031647;28;20485;-67
2021/01/21 07:30:13;;;;;;;1.50;0.70;;;9.60;55.20;;;;;;5038801;28;20040;-67
2021/01/21 07:32:38;;;;;;;1.10;0.70;;;9.70;55.40;;;;;;5042436;28;20033;-67
2021/01/21 07:35:04;;;;;;;0.88;0.85;;;9.70;55.30;;;;;;5033565;28;20045;-67
2021/01/21 07:37:45;;;;;;;0.70;0.70;;;9.80;54.50;;;;;;5030302;28;20028;-67
2021/01/21 07:40:12;;;;;;;1.23;0.60;;;9.80;54.30;;;;;;5026872;28;20022;-68
2021/01/21 07:42:37;;;;;;;0.80;0.63;;;9.90;54.70;;;;;;5028529;28;20052;-69
2021/01/21 07:45:31;;;;;;;1.17;0.82;;;10.00;54.40;;;;;;5031172;28;20025;-67
2021/01/21 07:48:17;;;;;;;1.08;0.70;;;10.00;54.10;;;;;;5016828;28;20026;-67
2021/01/21 07:50:42;;;;;;;0.95;0.80;;;10.10;53.60;;;;;;5016480;28;20507;-67
2021/01/21 07:53:21;;;;;;;1.45;0.75;;;10.20;54.10;;;;;;5019113;28;20025;-67
2021/01/21 07:55:48;;;;;;;1.40;1.23;;;10.30;54.10;;;;;;5035676;28;20474;-66
2021/01/21 07:58:21;;;;;;;1.83;0.63;;;10.50;54.70;;;;;;5032529;28;20026;-67
2021/01/21 08:00:49;;;;;;;1.20;0.50;;;10.50;54.90;;;;;;5041153;28;20040;-66
2021/01/21 08:03:25;;;;;;;6.00;1.60;;;10.60;55.00;;;;;;5037455;28;20084;-67
2021/01/21 08:05:51;;;;;;;1.48;1.00;;;10.70;55.20;;;;;;5033303;28;20033;-67
2021/01/21 08:08:23;;;;;;;1.75;1.30;;;10.70;55.50;;;;;;5035551;28;20033;-66
2021/01/21 08:10:48;;;;;;;0.80;0.80;;;10.80;54.90;;;;;;5038227;28;20025;-68
2021/01/21 08:13:15;;;;;;;1.15;1.05;;;10.90;54.90;;;;;;5035862;28;20040;-66
2021/01/21 08:15:42;;;;;;;1.33;0.80;;;10.90;55.00;;;;;;5035204;28;20025;-67
2021/01/21 08:18:15;;;;;;;1.90;1.20;;;10.90;55.20;;;;;;5035627;28;20018;-66
2021/01/21 08:20:40;;;;;;;2.13;1.38;;;10.90;54.80;;;;;;5043137;28;20393;-68
2021/01/21 08:23:10;;;;;;;0.93;0.90;;;10.90;55.10;;;;;;5049946;28;20025;-67
2021/01/21 08:25:44;;;;;;;5.43;1.08;;;10.90;54.90;;;;;;5048039;28;20029;-67
2021/01/21 08:28:14;;;;;;;1.48;0.80;;;10.90;54.70;;;;;;5047250;28;20025;-67
2021/01/21 08:30:39;;;;;;;3.72;0.98;;;11.00;54.40;;;;;;5038269;28;20501;-67
2021/01/21 08:33:23;;;;;;;1.05;0.88;;;11.00;55.00;;;;;;5054054;28;20057;-67
2021/01/21 08:35:55;;;;;;;1.30;0.90;;;11.00;55.00;;;;;;5038513;28;20029;-66
2021/01/21 08:38:30;;;;;;;13.45;6.65;;;11.00;55.00;;;;;;5032219;28;20184;-67
2021/01/21 08:40:57;;;;;;;1.77;1.10;;;11.00;55.30;;;;;;5015667;28;20445;-66
2021/01/21 08:43:24;;;;;;;5.47;1.17;;;11.00;55.30;;;;;;5033091;28;20018;-66
2021/01/21 08:45:51;;;;;;;1.20;1.08;;;11.00;54.70;;;;;;5032830;28;20474;-67
2021/01/21 08:48:43;;;;;;;0.90;0.80;;;11.00;55.20;;;;;;5034337;28;20457;-66
2021/01/21 08:51:29;;;;;;;1.30;0.90;;;11.00;55.00;;;;;;5030377;28;20136;-67
2021/01/21 08:54:17;;;;;;;3.78;1.33;;;11.00;55.10;;;;;;5032372;28;20211;-67
2021/01/21 08:56:42;;;;;;;1.25;0.95;;;11.10;54.90;;;;;;5033686;28;20025;-67
2021/01/21 08:59:30;;;;;;;1.27;1.13;;;11.10;55.00;;;;;;5010918;28;20026;-67
2021/01/21 09:01:56;;;;;;;1.80;1.20;;;11.20;55.30;;;;;;5050652;28;20036;-67
2021/01/21 09:04:23;;;;;;;2.00;1.45;;;11.30;55.20;;;;;;5037589;28;20109;-67
2021/01/21 09:06:51;;;;;;;3.13;1.60;;;11.30;55.00;;;;;;5038289;28;20028;-67
2021/01/21 09:09:27;;;;;;;2.83;1.70;;;11.40;55.10;;;;;;5016076;28;20049;-67
2021/01/21 09:11:53;;;;;;;3.60;1.60;;;11.40;55.60;;;;;;5032333;28;20097;-68
2021/01/21 09:14:19;;;;;;;1.70;1.20;;;11.40;55.40;;;;;;5031652;28;20045;-67
2021/01/21 09:16:51;;;;;;;3.17;1.58;;;11.50;55.60;;;;;;5032520;28;20025;-67
2021/01/21 09:19:36;;;;;;;3.13;1.48;;;11.50;55.90;;;;;;5032769;28;20035;-67
2021/01/21 09:22:14;;;;;;;1.83;1.42;;;11.50;56.00;;;;;;5032246;28;20470;-67
2021/01/21 09:24:55;;;;;;;3.42;1.38;;;11.50;56.00;;;;;;5031299;28;20026;-67
2021/01/21 09:27:24;;;;;;;4.45;0.80;;;11.50;55.90;;;;;;5014484;28;20025;-67
2021/01/21 09:29:51;;;;;;;1.40;1.02;;;11.60;56.20;;;;;;5034657;28;20088;-67
2021/01/21 09:32:21;;;;;;;0.70;0.70;;;11.60;56.60;;;;;;5050776;28;20127;-68
2021/01/21 09:34:57;;;;;;;1.70;0.70;;;11.60;56.40;;;;;;5033475;28;20079;-67
2021/01/21 09:37:24;;;;;;;0.70;0.70;;;11.70;56.70;;;;;;5052499;28;20528;-67
2021/01/21 09:39:50;;;;;;;0.70;0.50;;;11.70;56.60;;;;;;5052224;28;20079;-67
2021/01/21 09:42:18;;;;;;;1.02;0.60;;;11.70;56.60;;;;;;5034119;28;20017;-67
2021/01/21 09:44:44;;;;;;;0.80;0.80;;;11.70;56.80;;;;;;5036323;28;20116;-67
2021/01/21 09:47:09;;;;;;;1.17;1.00;;;11.70;57.00;;;;;;5031734;28;20454;-67
2021/01/21 09:49:35;;;;;;;1.60;1.10;;;11.80;56.80;;;;;;5031275;28;20053;-68
2021/01/21 09:52:01;;;;;;;2.95;1.80;;;11.80;56.80;;;;;;5030242;28;20030;-68
2021/01/21 09:54:27;;;;;;;1.95;1.48;;;11.90;57.00;;;;;;5010299;28;20374;-67
2021/01/21 09:56:54;;;;;;;3.35;1.73;;;11.90;56.70;;;;;;5014244;28;20553;-67
2021/01/21 09:59:20;;;;;;;1.35;1.20;;;11.90;57.50;;;;;;5048902;23;20228;-67
2021/01/21 10:01:47;;;;;;;1.58;1.23;;;11.80;57.20;;;;;;5061470;28;20021;-68
2021/01/21 10:04:12;;;;;;;1.92;0.95;;;11.80;57.50;;;;;;5050432;28;20029;-70
2021/01/21 10:06:38;;;;;;;1.20;1.10;;;11.70;57.70;;;;;;5051783;28;20021;-69
2021/01/21 10:09:03;;;;;;;1.55;0.98;;;11.70;58.00;;;;;;5051522;28;20401;-67
2021/01/21 10:11:29;;;;;;;1.60;0.90;;;11.70;58.20;;;;;;5051167;28;20111;-71
2021/01/21 10:13:55;;;;;;;1.30;0.73;;;11.70;57.90;;;;;;5032462;28;20174;-70
2021/01/21 10:16:21;;;;;;;0.60;0.60;;;11.70;57.90;;;;;;5050581;28;20534;-69
2021/01/21 10:18:46;;;;;;;0.52;0.52;;;11.70;58.10;;;;;;5059336;28;20025;-68
2021/01/21 10:21:12;;;;;;;0.80;0.70;;;11.70;58.20;;;;;;5051079;28;20029;-69
2021/01/21 10:23:37;;;;;;;3.20;0.80;;;11.70;58.40;;;;;;5046247;28;20100;-69
2021/01/21 10:26:03;;;;;;;0.98;0.88;;;11.80;58.50;;;;;;5047490;28;20025;-69
2021/01/21 10:28:28;;;;;;;1.00;0.90;;;11.80;58.40;;;;;;5050694;28;20067;-68
2021/01/21 10:30:54;;;;;;;1.13;0.88;;;11.90;58.40;;;;;;5033670;28;20123;-68
2021/01/21 10:33:20;;;;;;;0.80;0.80;;;12.00;58.40;;;;;;5051857;28;20029;-72
2021/01/21 10:35:45;;;;;;;0.80;0.80;;;12.10;58.30;;;;;;5050120;28;20079;-69
2021/01/21 10:38:11;;;;;;;1.33;1.02;;;12.20;58.10;;;;;;5051077;28;20471;-68
2021/01/21 10:40:38;;;;;;;1.25;1.15;;;12.30;58.10;;;;;;5050892;28;20498;-68
2021/01/21 10:43:03;;;;;;;1.88;1.30;;;12.40;58.10;;;;;;5067794;28;20104;-68
2021/01/21 10:45:29;;;;;;;1.15;1.05;;;12.50;58.30;;;;;;5055566;28;20115;-68
2021/01/21 10:47:54;;;;;;;1.20;0.68;;;12.50;58.00;;;;;;5070761;28;20058;-68
2021/01/21 10:50:20;;;;;;;1.08;0.65;;;12.60;57.60;;;;;;5043984;28;20028;-68
2021/01/21 10:52:45;;;;;;;0.32;0.32;;;12.60;57.60;;;;;;5040780;28;20374;-68
2021/01/21 10:55:12;;;;;;;0.47;0.47;;;12.70;57.60;;;;;;5043749;28;20070;-68
2021/01/21 10:57:37;;;;;;;0.70;0.50;;;12.80;57.70;;;;;;5070601;28;20025;-70
2021/01/21 11:00:05;;;;;;;0.40;0.40;;;12.90;56.90;;;;;;5053347;28;20071;-69
2021/01/21 11:02:30;;;;;;;0.95;0.40;;;13.00;57.20;;;;;;5028969;28;20477;-68
2021/01/21 11:04:56;;;;;;;0.40;0.40;;;13.00;57.00;;;;;;5043116;28;20044;-69
2021/01/21 11:07:21;;;;;;;0.30;0.30;;;13.00;56.60;;;;;;5049374;28;20032;-69
2021/01/21 11:09:47;;;;;;;0.40;0.40;;;13.00;56.80;;;;;;5049750;28;20408;-69
2021/01/21 11:12:15;;;;;;;0.90;0.50;;;12.90;57.60;;;;;;5048824;28;20063;-69
2021/01/21 11:14:41;;;;;;;0.95;0.47;;;12.90;57.40;;;;;;5045758;28;20040;-68
2021/01/21 11:17:06;;;;;;;0.82;0.40;;;12.90;57.60;;;;;;5051829;28;20466;-68
2021/01/21 11:19:32;;;;;;;1.95;0.60;;;12.80;57.90;;;;;;5050514;28;20025;-68
2021/01/21 11:21:57;;;;;;;0.80;0.50;;;12.80;58.30;;;;;;5049899;28;20082;-69
2021/01/21 11:24:23;;;;;;;0.60;0.52;;;12.70;58.00;;;;;;5050636;28;20039;-69
2021/01/21 11:26:48;;;;;;;1.00;0.60;;;12.70;58.20;;;;;;5070233;28;20415;-69
2021/01/21 11:29:14;;;;;;;0.40;0.40;;;12.70;58.10;;;;;;5057598;28;20120;-69
2021/01/21 11:31:39;;;;;;;0.50;0.50;;;12.70;58.20;;;;;;5049508;28;20025;-69
2021/01/21 11:34:05;;;;;;;0.60;0.50;;;12.70;58.30;;;;;;5060257;28;20024;-69
2021/01/21 11:36:31;;;;;;;0.32;0.32;;;12.60;58.30;;;;;;5069753;28;20036;-69
2021/01/21 11:38:56;;;;;;;0.40;0.40;;;12.70;58.40;;;;;;5059289;28;20052;-69
2021/01/21 11:41:22;;;;;;;2.33;0.60;;;12.70;58.40;;;;;;5049871;28;20021;-70
2021/01/21 11:43:47;;;;;;;3.03;0.50;;;12.60;58.60;;;;;;5040667;28;20033;-70
2021/01/21 11:46:13;;;;;;;1.60;0.45;;;12.70;58.60;;;;;;5031724;28;20025;-70
2021/01/21 11:48:38;;;;;;;1.63;0.60;;;12.60;58.80;;;;;;5068928;28;20029;-69
2021/01/21 11:51:05;;;;;;;2.05;0.60;;;12.60;59.00;;;;;;5068902;28;20054;-69
2021/01/21 11:53:31;;;;;;;0.40;0.40;;;12.70;59.00;;;;;;5034005;28;20040;-68
2021/01/21 11:55:56;;;;;;;1.20;0.50;;;12.60;59.20;;;;;;5029094;28;20026;-70
2021/01/21 11:58:22;;;;;;;0.68;0.40;;;12.60;59.10;;;;;;5052870;28;20044;-68
2021/01/21 12:00:47;;;;;;;1.67;0.60;;;12.60;59.40;;;;;;5049301;28;20021;-68
2021/01/21 12:03:13;;;;;;;1.98;0.40;;;12.60;59.90;;;;;;5049477;28;20025;-68
2021/01/21 12:05:39;;;;;;;0.80;0.80;;;12.50;60.30;;;;;;5030576;28;20095;-68
2021/01/21 12:08:05;;;;;;;0.50;0.50;;;12.50;60.30;;;;;;5065828;28;20476;-69
2021/01/21 12:10:31;;;;;;;0.63;0.60;;;12.50;60.60;;;;;;5068994;28;20033;-70
2021/01/21 12:12:56;;;;;;;2.75;0.60;;;12.50;60.90;;;;;;5054692;28;20060;-69
2021/01/21 12:15:22;;;;;;;0.77;0.65;;;12.50;60.90;;;;;;5048539;28;20408;-69
2021/01/21 12:17:48;;;;;;;1.30;0.82;;;12.40;61.20;;;;;;5050221;28;20085;-69
2021/01/21 12:20:14;;;;;;;0.68;0.50;;;12.30;61.40;;;;;;5054811;28;20037;-69
2021/01/21 12:22:41;;;;;;;0.60;0.60;;;12.30;61.40;;;;;;5055084;28;20020;-68
2021/01/21 12:25:07;;;;;;;0.52;0.52;;;12.30;61.60;;;;;;5049630;28;20081;-69
2021/01/21 12:27:32;;;;;;;0.50;0.50;;;12.20;61.40;;;;;;5053085;28;20465;-69
2021/01/21 12:29:58;;;;;;;1.30;0.40;;;12.30;61.80;;;;;;5054079;28;20157;-68
2021/01/21 12:32:24;;;;;;;0.70;0.60;;;12.20;61.70;;;;;;5052606;28;20115;-68
2021/01/21 12:34:50;;;;;;;1.30;0.77;;;12.20;61.80;;;;;;5051291;28;20481;-69
2021/01/21 12:37:15;;;;;;;0.40;0.40;;;12.20;61.60;;;;;;5053287;28;20426;-68
2021/01/21 12:39:41;;;;;;;1.70;0.60;;;12.20;61.60;;;;;;5069762;28;20036;-68
2021/01/21 12:42:07;;;;;;;0.60;0.52;;;12.30;61.40;;;;;;5070129;28;20066;-67
2021/01/21 12:44:32;;;;;;;0.82;0.60;;;12.30;62.00;;;;;;5071481;28;20031;-68
2021/01/21 12:46:58;;;;;;;2.88;0.60;;;12.30;61.60;;;;;;5057063;28;20196;-69
2021/01/21 12:49:23;;;;;;;0.60;0.60;;;12.40;61.40;;;;;;5053035;28;20076;-69
2021/01/21 12:51:49;;;;;;;0.93;0.60;;;12.30;61.60;;;;;;5064613;28;20537;-69
2021/01/21 12:54:15;;;;;;;0.40;0.40;;;12.40;61.90;;;;;;5051419;28;20032;-69
2021/01/21 12:56:40;;;;;;;1.80;0.45;;;12.30;61.80;;;;;;5052741;28;20120;-68
2021/01/21 12:59:06;;;;;;;2.67;0.52;;;12.40;61.80;;;;;;5052275;28;20071;-68